Time;durP1;ratioP1;P1;durP2;ratioP2;P2;SDS_P1;SDS_P2;PMS_P1;PMS_P2;Temp;Humidity;BMP_temperature;BMP_pressure;BME280_temperature;BME280_humidity;BME280_pressure;Samples;Min_cycle;Max_cycle;Signal;HPM_P1;HPM_P2
2022/02/18 00:02:19;;;;;;;11.95;2.70;;;;;;;7.88;67.48;99109.50;5090352;28;20105;-60
2022/02/18 00:04:46;;;;;;;14.02;2.60;;;;;;;7.89;67.39;99119.06;5090380;28;20484;-60
2022/02/18 00:07:13;;;;;;;22.23;3.78;;;;;;;7.89;67.69;99111.19;5090299;28;20105;-60
2022/02/18 00:09:39;;;;;;;20.50;3.28;;;;;;;7.90;67.77;99118.13;5088558;28;20550;-61
2022/02/18 00:12:07;;;;;;;12.27;3.33;;;;;;;7.91;67.74;99114.59;5090002;28;20553;-61
2022/02/18 00:14:34;;;;;;;18.08;3.83;;;;;;;7.91;67.88;99118.97;5090025;28;20105;-61
2022/02/18 00:17:00;;;;;;;14.20;2.53;;;;;;;7.92;68.03;99116.25;5089757;28;20188;-60
2022/02/18 00:19:27;;;;;;;17.83;3.28;;;;;;;7.94;67.97;99121.44;5089804;28;20109;-60
2022/02/18 00:21:54;;;;;;;13.15;2.83;;;;;;;7.93;67.80;99110.09;5090082;28;20052;-60
2022/02/18 00:24:21;;;;;;;9.40;2.50;;;;;;;7.94;67.78;99124.91;5089955;28;20047;-60
2022/02/18 00:26:48;;;;;;;15.93;3.17;;;;;;;7.92;67.90;99123.28;5090051;28;20117;-61
2022/02/18 00:29:14;;;;;;;14.60;2.78;;;;;;;7.92;67.73;99123.28;5089813;28;20076;-60
2022/02/18 00:31:41;;;;;;;10.95;2.42;;;;;;;7.92;67.91;99132.00;5089897;28;20109;-60
2022/02/18 00:34:08;;;;;;;15.15;3.53;;;;;;;7.91;68.16;99129.44;5089392;28;20113;-61
2022/02/18 00:36:34;;;;;;;13.63;2.65;;;;;;;7.91;68.15;99130.31;5090055;28;20048;-59
2022/02/18 00:39:02;;;;;;;12.68;2.95;;;;;;;7.89;68.13;99124.28;5090012;28;20454;-60
2022/02/18 00:41:28;;;;;;;14.93;4.18;;;;;;;7.88;68.19;99135.72;5093134;28;20057;-61
2022/02/18 00:43:55;;;;;;;11.43;3.58;;;;;;;7.87;68.36;99136.66;5093440;28;20110;-61
2022/02/18 00:46:22;;;;;;;17.58;2.97;;;;;;;7.86;68.32;99121.88;5093660;28;20389;-60
2022/02/18 00:48:48;;;;;;;8.23;2.28;;;;;;;7.85;68.77;99128.00;5093121;28;20561;-60
2022/02/18 00:51:15;;;;;;;16.25;2.97;;;;;;;7.86;68.64;99132.34;5093256;28;20052;-61
2022/02/18 00:53:42;;;;;;;12.88;2.55;;;;;;;7.86;68.91;99126.25;5093740;28;20055;-60
2022/02/18 00:56:09;;;;;;;18.48;4.05;;;;;;;7.86;68.97;99123.63;5093639;28;20048;-60
2022/02/18 00:58:35;;;;;;;11.95;3.38;;;;;;;7.85;68.73;99119.31;5093341;28;20059;-61
2022/02/18 01:01:02;;;;;;;14.43;2.55;;;;;;;7.84;69.11;99131.56;5091772;28;20048;-59
2022/02/18 01:03:29;;;;;;;14.23;2.95;;;;;;;7.86;69.37;99126.25;5093494;28;20040;-60
2022/02/18 01:05:55;;;;;;;16.50;3.08;;;;;;;7.86;69.20;99137.59;5093233;28;20101;-63
2022/02/18 01:08:22;;;;;;;12.48;2.63;;;;;;;7.86;69.33;99126.25;5092060;28;20056;-60
2022/02/18 01:10:50;;;;;;;12.82;3.05;;;;;;;7.87;69.38;99130.56;5092991;28;20048;-60
2022/02/18 01:13:16;;;;;;;13.65;3.40;;;;;;;7.89;69.47;99126.09;5092945;28;20078;-60
2022/02/18 01:15:43;;;;;;;16.92;3.38;;;;;;;7.89;69.46;99128.72;5093141;28;20048;-61
2022/02/18 01:18:09;;;;;;;14.85;3.13;;;;;;;7.89;69.67;99129.53;5093236;28;20109;-62
2022/02/18 01:20:36;;;;;;;13.52;2.65;;;;;;;7.89;69.69;99132.16;5092848;28;20125;-61
2022/02/18 01:23:05;;;;;;;13.35;2.95;;;;;;;7.90;69.68;99141.72;5093113;28;20055;-61
2022/02/18 01:25:32;;;;;;;13.35;3.20;;;;;;;7.91;69.86;99132.06;5093004;28;20562;-62
2022/02/18 01:27:58;;;;;;;14.20;2.80;;;;;;;7.91;69.80;99130.31;5092543;28;20527;-61
2022/02/18 01:30:26;;;;;;;14.15;2.67;;;;;;;7.91;69.76;99138.16;5092750;28;20048;-61
2022/02/18 01:32:53;;;;;;;17.23;2.92;;;;;;;7.93;69.74;99138.91;5092950;28;21065;-62
2022/02/18 01:35:20;;;;;;;20.77;4.30;;;;;;;7.93;69.96;99122.38;5091716;28;20056;-60
2022/02/18 01:37:53;;;;;;;16.52;4.28;;;;;;;7.93;70.31;99111.88;5092767;28;20051;-62
2022/02/18 01:40:22;;;;;;;12.15;2.95;;;;;;;7.93;70.08;99117.13;5092416;28;20048;-60
2022/02/18 01:42:49;;;;;;;16.75;3.58;;;;;;;7.93;70.00;99122.38;5091083;28;20499;-60
2022/02/18 01:45:16;;;;;;;21.60;3.60;;;;;;;7.93;70.46;99117.13;5092586;28;20048;-61
2022/02/18 01:47:42;;;;;;;16.67;3.67;;;;;;;7.92;70.16;99126.75;5092264;28;20094;-60
2022/02/18 01:50:09;;;;;;;16.80;2.97;;;;;;;7.92;70.23;99132.00;5092429;28;20048;-60
2022/02/18 01:52:43;;;;;;;18.33;3.40;;;;;;;7.91;69.83;99130.31;5092120;28;20377;-60
2022/02/18 01:55:12;;;;;;;12.85;4.25;;;;;;;7.93;70.58;99131.06;5091022;28;20078;-63
2022/02/18 01:57:46;;;;;;;17.08;3.38;;;;;;;7.94;70.65;99119.66;5092139;28;20094;-60
2022/02/18 02:00:14;;;;;;;12.20;2.92;;;;;;;7.95;70.63;99120.47;5090581;28;20074;-61
2022/02/18 02:02:41;;;;;;;16.65;3.53;;;;;;;7.94;70.82;99110.94;5090724;28;20052;-61
2022/02/18 02:05:11;;;;;;;17.60;3.20;;;;;;;7.95;70.64;99110.00;5090525;28;20394;-61
2022/02/18 02:07:39;;;;;;;13.27;2.72;;;;;;;7.94;70.66;99109.19;5090661;28;20052;-61
2022/02/18 02:10:07;;;;;;;16.60;4.00;;;;;;;7.94;70.58;99101.31;5090173;28;20490;-63
2022/02/18 02:12:42;;;;;;;13.95;4.13;;;;;;;7.93;70.44;99091.75;5090215;28;20044;-61
2022/02/18 02:15:10;;;;;;;20.15;3.58;;;;;;;7.94;70.77;99088.22;5090089;28;20492;-60
2022/02/18 02:17:38;;;;;;;20.15;3.55;;;;;;;7.96;70.62;99082.84;5091725;28;20059;-59
2022/02/18 02:20:06;;;;;;;19.08;3.20;;;;;;;7.96;70.83;99080.22;5091663;28;20055;-60
2022/02/18 02:22:32;;;;;;;13.07;3.50;;;;;;;7.97;71.01;99083.72;5091518;28;20044;-62
2022/02/18 02:24:59;;;;;;;18.45;2.88;;;;;;;7.95;70.71;99073.31;5091605;28;20048;-60
2022/02/18 02:27:26;;;;;;;11.85;2.80;;;;;;;7.98;70.89;99074.91;5091575;28;20056;-60
2022/02/18 02:29:52;;;;;;;13.75;3.58;;;;;;;7.98;70.83;99067.91;5091027;28;20052;-61
2022/02/18 02:32:21;;;;;;;11.07;3.00;;;;;;;8.00;70.80;99073.06;5090000;28;20050;-60
2022/02/18 02:34:48;;;;;;;14.32;3.05;;;;;;;8.00;70.67;99068.66;5090381;28;20097;-63
2022/02/18 02:37:15;;;;;;;19.05;3.25;;;;;;;8.01;70.67;99069.50;5091534;28;20078;-61
2022/02/18 02:39:42;;;;;;;17.05;3.05;;;;;;;8.02;70.93;99084.28;5091093;28;20098;-59
2022/02/18 02:42:10;;;;;;;22.08;4.03;;;;;;;8.01;70.76;99079.97;5090013;28;20044;-60
2022/02/18 02:44:37;;;;;;;19.90;3.53;;;;;;;8.02;71.12;99079.03;5091063;28;20043;-61
2022/02/18 02:47:04;;;;;;;13.90;3.45;;;;;;;8.00;70.79;99073.06;5090760;28;20050;-60
2022/02/18 02:49:31;;;;;;;15.55;2.97;;;;;;;8.00;70.83;99065.19;5090931;28;20043;-62
2022/02/18 02:51:57;;;;;;;17.33;3.25;;;;;;;7.99;70.93;99064.34;5090966;28;20044;-60
2022/02/18 02:54:25;;;;;;;15.40;3.17;;;;;;;8.00;71.18;99067.81;5091203;28;20113;-60
2022/02/18 02:56:56;;;;;;;18.55;3.25;;;;;;;8.00;70.85;99059.97;5089767;28;20113;-59
2022/02/18 02:59:24;;;;;;;17.85;3.20;;;;;;;8.00;70.98;99057.34;5089475;28;20064;-61
2022/02/18 03:01:52;;;;;;;15.25;2.97;;;;;;;8.01;71.14;99048.53;5089254;28;20048;-59
2022/02/18 03:04:19;;;;;;;13.77;3.08;;;;;;;7.99;71.22;99055.66;5090521;28;20044;-60
2022/02/18 03:06:46;;;;;;;18.60;3.38;;;;;;;7.98;71.24;99049.56;5090817;28;20044;-59
2022/02/18 03:09:32;;;;;;;17.98;3.10;;;;;;;7.97;71.29;99047.03;5089540;28;20100;-60
2022/02/18 03:11:58;;;;;;;15.50;2.95;;;;;;;7.97;71.11;99023.44;5090764;28;20499;-60
2022/02/18 03:14:25;;;;;;;15.55;3.38;;;;;;;7.97;71.28;99024.28;5090663;28;20044;-59
2022/02/18 03:16:52;;;;;;;11.73;3.03;;;;;;;7.98;71.47;99025.97;5089503;28;20381;-60
2022/02/18 03:19:18;;;;;;;12.73;3.60;;;;;;;7.97;71.29;99019.06;5090360;28;20520;-59
2022/02/18 03:21:45;;;;;;;15.20;3.53;;;;;;;7.97;71.61;99020.81;5090579;28;20048;-59
2022/02/18 03:24:11;;;;;;;16.33;3.17;;;;;;;7.95;71.71;99027.00;5090400;28;20052;-61
2022/02/18 03:26:38;;;;;;;12.40;3.40;;;;;;;7.95;71.37;99028.75;5090361;28;20040;-60
2022/02/18 03:29:05;;;;;;;17.17;3.45;;;;;;;7.94;71.84;99017.44;5088142;28;20066;-60
2022/02/18 03:31:31;;;;;;;17.15;3.70;;;;;;;7.94;71.59;99017.44;5090430;28;20142;-60
2022/02/18 03:33:58;;;;;;;13.88;3.20;;;;;;;7.94;71.83;99006.13;5088964;28;20048;-60
2022/02/18 03:36:24;;;;;;;20.80;3.42;;;;;;;7.95;71.76;99003.41;5090397;28;20060;-60
2022/02/18 03:38:54;;;;;;;12.25;3.33;;;;;;;7.94;71.69;98996.50;5090150;28;20051;-62
2022/02/18 03:41:21;;;;;;;18.73;3.65;;;;;;;7.94;71.74;99001.72;5089906;28;20047;-60
2022/02/18 03:43:48;;;;;;;15.30;3.05;;;;;;;7.95;71.79;99002.56;5088745;28;20055;-61
2022/02/18 03:46:15;;;;;;;15.52;3.78;;;;;;;7.95;72.10;99002.56;5090257;28;20052;-60
2022/02/18 03:48:41;;;;;;;19.15;3.53;;;;;;;7.94;72.07;99004.34;5090288;28;20081;-59
2022/02/18 03:51:08;;;;;;;13.13;3.60;;;;;;;7.94;72.12;99014.84;5089840;28;20819;-61
2022/02/18 03:53:35;;;;;;;16.30;3.88;;;;;;;7.93;71.99;99013.13;5089807;28;20484;-59
2022/02/18 03:56:01;;;;;;;15.77;3.55;;;;;;;7.93;72.21;99009.69;5090334;28;20048;-60
2022/02/18 03:58:28;;;;;;;17.48;4.00;;;;;;;7.92;72.11;99005.34;5090414;28;20046;-62
2022/02/18 04:00:55;;;;;;;14.80;4.20;;;;;;;7.91;72.42;98996.66;5089401;28;20488;-59
2022/02/18 04:03:21;;;;;;;18.42;3.90;;;;;;;7.92;72.37;98994.88;5090369;28;20047;-59
2022/02/18 04:05:48;;;;;;;16.83;4.10;;;;;;;7.91;72.53;98978.31;5090085;28;20044;-61
2022/02/18 04:08:14;;;;;;;13.65;3.85;;;;;;;7.92;72.65;98973.91;5088847;28;20044;-62
2022/02/18 04:10:41;;;;;;;16.92;4.90;;;;;;;7.92;72.23;98973.91;5090045;28;20052;-60
2022/02/18 04:13:08;;;;;;;15.55;4.25;;;;;;;7.91;72.27;98966.97;5090031;28;20101;-60
2022/02/18 04:15:34;;;;;;;14.55;4.05;;;;;;;7.91;72.60;98962.59;5093750;28;20603;-61
2022/02/18 04:18:01;;;;;;;19.92;4.68;;;;;;;7.91;72.68;98961.75;5094172;28;20739;-61
2022/02/18 04:20:28;;;;;;;19.85;5.30;;;;;;;7.90;72.70;98963.53;5093929;28;20052;-59
2022/02/18 04:23:14;;;;;;;16.92;4.90;;;;;;;7.91;72.57;98959.13;5094185;28;20493;-59
2022/02/18 04:25:41;;;;;;;21.02;5.13;;;;;;;7.89;72.69;98955.75;5094075;28;20101;-61
2022/02/18 04:28:08;;;;;;;24.25;6.32;;;;;;;7.88;72.92;98954.06;5094196;28;20044;-60
2022/02/18 04:30:34;;;;;;;23.08;6.15;;;;;;;7.87;72.95;98950.59;5093532;28;20094;-60
2022/02/18 04:33:01;;;;;;;26.58;7.28;;;;;;;7.87;73.26;98950.59;5093819;28;20056;-61
2022/02/18 04:35:28;;;;;;;16.25;5.25;;;;;;;7.87;73.16;98949.75;5093685;28;20055;-60
2022/02/18 04:37:55;;;;;;;13.13;5.80;;;;;;;7.88;73.40;98938.31;5094008;28;20458;-61
2022/02/18 04:40:21;;;;;;;18.25;5.20;;;;;;;7.90;73.62;98939.94;5093488;28;20051;-60
2022/02/18 04:42:48;;;;;;;13.80;5.07;;;;;;;7.93;73.67;98939.75;5093795;28;20048;-60
2022/02/18 04:45:15;;;;;;;20.02;4.63;;;;;;;7.97;73.41;98942.19;5093519;28;20101;-60
2022/02/18 04:47:42;;;;;;;20.50;5.53;;;;;;;7.98;73.69;98928.16;5093041;28;20044;-60
2022/02/18 04:50:09;;;;;;;16.58;5.88;;;;;;;7.98;73.35;98936.00;5093226;28;20060;-61
2022/02/18 04:52:36;;;;;;;22.45;6.63;;;;;;;8.00;73.60;98931.53;5093418;28;20054;-60
2022/02/18 04:55:05;;;;;;;21.92;6.70;;;;;;;8.00;73.35;98924.50;5093391;28;20815;-60
2022/02/18 04:57:34;;;;;;;19.17;6.18;;;;;;;8.00;73.77;98929.75;5092203;28;20050;-60
2022/02/18 05:00:01;;;;;;;19.52;6.28;;;;;;;8.00;73.55;98918.44;5091857;28;20048;-59
2022/02/18 05:02:28;;;;;;;21.83;6.07;;;;;;;8.00;73.60;98915.81;5091988;28;20051;-62
2022/02/18 05:04:54;;;;;;;23.13;6.22;;;;;;;7.99;73.65;98911.50;5092711;28;20086;-61
2022/02/18 05:07:21;;;;;;;22.80;6.50;;;;;;;8.00;73.68;98907.94;5093506;28;20048;-59
2022/02/18 05:09:47;;;;;;;22.60;6.65;;;;;;;8.00;73.99;98886.97;5093030;28;20107;-61
2022/02/18 05:12:14;;;;;;;20.77;6.50;;;;;;;8.01;73.92;98880.81;5093156;28;20402;-60
2022/02/18 05:14:41;;;;;;;18.52;5.75;;;;;;;8.01;73.79;98862.47;5092620;28;20093;-60
2022/02/18 05:17:07;;;;;;;24.95;6.05;;;;;;;8.02;74.12;98866.75;5092878;28;20172;-60
2022/02/18 05:19:34;;;;;;;20.95;5.25;;;;;;;8.03;74.11;98864.03;5093178;28;20051;-60
2022/02/18 05:22:00;;;;;;;17.70;5.43;;;;;;;8.04;74.01;98857.03;5092952;28;20078;-62
2022/02/18 05:24:27;;;;;;;18.60;6.00;;;;;;;8.04;73.75;98865.72;5092884;28;20048;-60
2022/02/18 05:26:53;;;;;;;29.98;6.22;;;;;;;8.04;74.11;98868.34;5092212;28;20094;-60
2022/02/18 05:29:20;;;;;;;22.02;5.72;;;;;;;8.05;74.08;98861.34;5092171;28;20117;-61
2022/02/18 05:31:46;;;;;;;19.98;5.22;;;;;;;8.05;74.30;98867.44;5092640;28;20052;-62
2022/02/18 05:34:13;;;;;;;18.98;4.13;;;;;;;8.06;74.05;98858.63;5092672;28;20044;-61
2022/02/18 05:36:40;;;;;;;17.40;5.00;;;;;;;8.05;74.11;98851.69;5092646;28;20044;-59
2022/02/18 05:39:06;;;;;;;21.48;5.55;;;;;;;8.07;74.41;98836.72;5092452;28;20048;-66
2022/02/18 05:41:33;;;;;;;16.73;5.30;;;;;;;8.08;74.34;98808.72;5091200;28;20056;-59
2022/02/18 05:43:59;;;;;;;15.85;4.82;;;;;;;8.10;74.22;98788.50;5092023;28;20106;-60
2022/02/18 05:46:26;;;;;;;19.33;5.10;;;;;;;8.14;74.29;98799.63;5092451;28;20059;-60
2022/02/18 05:48:52;;;;;;;22.25;4.85;;;;;;;8.16;74.38;98782.88;5092234;28;20565;-62
2022/02/18 05:51:19;;;;;;;20.42;4.47;;;;;;;8.22;74.43;98781.63;5092074;28;20557;-60
2022/02/18 05:53:46;;;;;;;23.80;4.72;;;;;;;8.25;74.25;98770.97;5092286;28;20052;-61
2022/02/18 05:56:12;;;;;;;16.23;4.13;;;;;;;8.30;74.50;98770.69;5092248;28;20052;-59
2022/02/18 05:58:39;;;;;;;20.77;4.63;;;;;;;8.34;74.37;98774.78;5090699;28;20043;-63
2022/02/18 06:01:05;;;;;;;19.35;4.07;;;;;;;8.37;74.47;98758.84;5090396;28;20060;-61
2022/02/18 06:03:32;;;;;;;21.40;5.03;;;;;;;8.41;74.00;98749.03;5092127;28;20052;-60
2022/02/18 06:05:58;;;;;;;18.70;4.18;;;;;;;8.44;73.89;98727.81;5091815;28;20078;-60
2022/02/18 06:08:25;;;;;;;12.48;3.20;;;;;;;8.46;74.05;98718.91;5091833;28;20051;-62
2022/02/18 06:10:51;;;;;;;18.40;3.65;;;;;;;8.48;73.98;98721.44;5091647;28;20089;-61
2022/02/18 06:13:18;;;;;;;17.65;4.03;;;;;;;8.51;74.05;98708.13;5091719;28;20056;-61
2022/02/18 06:15:46;;;;;;;18.88;4.55;;;;;;;8.53;74.16;98700.19;5091434;28;20466;-62
2022/02/18 06:18:12;;;;;;;15.68;3.83;;;;;;;8.55;73.93;98678.16;5091971;28;20044;-60
2022/02/18 06:20:39;;;;;;;13.43;4.40;;;;;;;8.57;73.77;98676.28;5091602;28;20106;-60
2022/02/18 06:23:06;;;;;;;13.13;4.25;;;;;;;8.59;74.02;98666.53;5091389;28;20048;-60
2022/02/18 06:25:32;;;;;;;16.40;4.47;;;;;;;8.61;73.97;98669.06;5091528;28;20385;-60
2022/02/18 06:28:05;;;;;;;17.52;4.45;;;;;;;8.59;73.53;98677.03;5091345;28;20048;-61
2022/02/18 06:30:32;;;;;;;21.92;6.00;;;;;;;8.64;74.03;98675.88;5091289;28;20048;-61
2022/02/18 06:32:59;;;;;;;31.35;6.65;;;;;;;8.66;73.83;98666.97;5090809;28;20113;-60
2022/02/18 06:35:25;;;;;;;18.75;5.72;;;;;;;8.65;73.82;98649.56;5091446;28;20132;-60
2022/02/18 06:37:52;;;;;;;20.00;5.35;;;;;;;8.65;73.91;98641.69;5090180;28;20553;-60
2022/02/18 06:40:19;;;;;;;17.67;5.13;;;;;;;8.65;73.70;98620.69;5090761;28;20078;-60
2022/02/18 06:42:45;;;;;;;18.98;6.30;;;;;;;8.67;73.58;98617.97;5091201;28;20101;-60
2022/02/18 06:45:17;;;;;;;17.85;5.50;;;;;;;8.68;73.82;98609.97;5091221;28;20113;-61
2022/02/18 06:47:48;;;;;;;22.48;5.78;;;;;;;8.69;73.69;98605.56;5091226;28;20101;-61
2022/02/18 06:50:16;;;;;;;16.50;5.30;;;;;;;8.71;73.94;98601.06;5089210;28;20438;-60
2022/02/18 06:52:44;;;;;;;19.70;5.13;;;;;;;8.70;73.76;98581.84;5091286;28;20052;-60
2022/02/18 06:55:12;;;;;;;21.88;5.88;;;;;;;8.71;73.79;98573.03;5090535;28;20051;-60
2022/02/18 06:57:44;;;;;;;19.75;5.05;;;;;;;8.72;73.59;98577.34;5089630;28;20528;-60
2022/02/18 07:00:13;;;;;;;24.23;5.53;;;;;;;8.73;73.76;98570.31;5088687;28;20055;-61
2022/02/18 07:02:40;;;;;;;20.90;5.85;;;;;;;8.73;73.68;98576.41;5090815;28;20093;-59
2022/02/18 07:05:09;;;;;;;20.23;4.95;;;;;;;8.72;73.63;98574.72;5089142;28;20113;-59
2022/02/18 07:07:36;;;;;;;21.75;5.50;;;;;;;8.72;73.80;98569.47;5089651;28;20475;-61
2022/02/18 07:10:06;;;;;;;22.90;6.15;;;;;;;8.71;73.86;98541.56;5090973;28;20048;-60
2022/02/18 07:12:33;;;;;;;20.45;5.10;;;;;;;8.72;73.93;98535.34;5089714;28;20040;-62
2022/02/18 07:14:59;;;;;;;20.00;5.22;;;;;;;8.71;73.97;98507.44;5090771;28;20101;-61
2022/02/18 07:17:28;;;;;;;16.55;5.03;;;;;;;8.72;73.85;98500.44;5089339;28;20060;-61
2022/02/18 07:19:55;;;;;;;18.63;5.30;;;;;;;8.74;74.04;98488.03;5090324;28;20112;-63
2022/02/18 07:22:22;;;;;;;20.52;4.90;;;;;;;8.76;74.24;98480.91;5090729;28;20109;-60
2022/02/18 07:24:52;;;;;;;17.88;4.00;;;;;;;8.78;74.03;98473.75;5088610;28;20052;-60
2022/02/18 07:27:19;;;;;;;19.45;4.47;;;;;;;8.82;74.01;98464.72;5088711;28;20051;-59
2022/02/18 07:29:46;;;;;;;18.75;5.03;;;;;;;8.83;74.02;98460.31;5089519;28;20055;-61
2022/02/18 07:32:13;;;;;;;20.55;4.05;;;;;;;8.86;74.14;98460.13;5090278;28;20060;-60
2022/02/18 07:34:40;;;;;;;15.60;4.28;;;;;;;8.87;74.15;98448.66;5090449;28;20040;-60
2022/02/18 07:37:07;;;;;;;22.83;4.53;;;;;;;8.88;74.10;98445.09;5089399;28;20466;-59
2022/02/18 07:39:33;;;;;;;17.92;3.95;;;;;;;8.90;74.18;98437.09;5090156;28;20044;-61
2022/02/18 07:42:00;;;;;;;21.98;3.85;;;;;;;8.90;73.90;98440.56;5089939;28;20098;-59
2022/02/18 07:44:26;;;;;;;18.05;4.57;;;;;;;8.92;73.98;98414.19;5089917;28;20059;-60
2022/02/18 07:46:53;;;;;;;16.42;3.58;;;;;;;8.92;73.83;98412.44;5090394;28;20047;-62
2022/02/18 07:49:42;;;;;;;18.00;3.22;;;;;;;8.95;74.10;98406.97;5090389;28;20082;-60
2022/02/18 07:52:09;;;;;;;18.52;3.92;;;;;;;8.96;73.75;98392.88;5089323;28;20048;-61
2022/02/18 07:54:36;;;;;;;23.35;3.90;;;;;;;8.98;73.72;98382.28;5090277;28;20067;-62
2022/02/18 07:57:04;;;;;;;17.40;3.92;;;;;;;8.99;73.81;98362.94;5088075;28;20105;-60
2022/02/18 07:59:31;;;;;;;18.13;3.85;;;;;;;9.01;73.69;98363.66;5088470;28;20051;-60
2022/02/18 08:01:58;;;;;;;16.45;3.60;;;;;;;9.02;73.64;98351.38;5090523;28;20640;-61
2022/02/18 08:04:25;;;;;;;15.43;3.30;;;;;;;9.03;73.59;98346.03;5090130;28;20450;-59
2022/02/18 08:06:51;;;;;;;10.38;2.78;;;;;;;9.05;73.81;98338.06;5090068;28;20044;-59
2022/02/18 08:09:18;;;;;;;18.30;3.40;;;;;;;9.05;73.62;98322.31;5089970;28;20052;-60
2022/02/18 08:11:44;;;;;;;20.05;3.50;;;;;;;9.06;73.40;98318.72;5088878;28;20093;-60
2022/02/18 08:14:11;;;;;;;13.38;3.00;;;;;;;9.05;73.60;98307.38;5088448;28;20101;-60
2022/02/18 08:16:38;;;;;;;18.67;4.18;;;;;;;9.06;73.40;98305.59;5089029;28;20558;-60
2022/02/18 08:19:06;;;;;;;19.02;3.78;;;;;;;9.04;73.27;98295.19;5089783;28;20204;-60
2022/02/18 08:21:33;;;;;;;20.05;3.38;;;;;;;9.03;73.13;98283.03;5088946;28;20056;-59
2022/02/18 08:24:00;;;;;;;19.35;3.17;;;;;;;9.02;73.54;98280.53;5089955;28;20074;-60
2022/02/18 08:26:26;;;;;;;19.60;3.75;;;;;;;9.00;73.36;98270.13;5089654;28;20504;-62
2022/02/18 08:28:53;;;;;;;22.67;3.65;;;;;;;8.99;73.47;98271.94;5089940;28;20089;-60
2022/02/18 08:31:19;;;;;;;18.20;3.42;;;;;;;8.98;73.39;98253.69;5089806;28;20049;-60
2022/02/18 08:33:46;;;;;;;19.85;3.33;;;;;;;8.98;73.66;98240.56;5089995;28;20565;-60
2022/02/18 08:36:12;;;;;;;18.23;3.60;;;;;;;8.97;73.89;98225.78;5088684;28;20097;-62
2022/02/18 08:38:40;;;;;;;18.38;3.30;;;;;;;8.97;73.83;98220.53;5089938;28;20098;-61
2022/02/18 08:41:09;;;;;;;15.82;3.53;;;;;;;8.98;74.09;98202.00;5089700;28;20094;-61
2022/02/18 08:43:35;;;;;;;17.08;2.92;;;;;;;8.97;73.78;98210.84;5089677;28;20047;-60
2022/02/18 08:46:02;;;;;;;13.38;3.70;;;;;;;8.97;73.81;98183.78;5089772;28;20055;-60
2022/02/18 08:48:29;;;;;;;13.77;3.17;;;;;;;8.95;73.91;98185.66;5089638;28;20492;-61
2022/02/18 08:50:57;;;;;;;13.88;4.15;;;;;;;8.92;73.87;98168.38;5089253;28;20048;-60
2022/02/18 08:53:24;;;;;;;17.08;3.40;;;;;;;8.91;74.02;98177.19;5089700;28;20488;-59
2022/02/18 08:55:51;;;;;;;14.27;3.42;;;;;;;8.91;74.01;98158.84;5089144;28;20052;-62
2022/02/18 08:58:18;;;;;;;9.82;2.50;;;;;;;8.90;74.18;98141.41;5089474;28;20496;-61
2022/02/18 09:00:44;;;;;;;15.60;3.05;;;;;;;8.90;74.40;98141.41;5089859;28;20047;-59
2022/02/18 09:03:11;;;;;;;14.60;3.60;;;;;;;8.90;74.69;98144.03;5093292;28;20230;-60
2022/02/18 09:05:38;;;;;;;12.25;2.90;;;;;;;8.91;74.59;98129.13;5093171;28;20439;-60
2022/02/18 09:08:04;;;;;;;10.10;2.80;;;;;;;8.92;74.71;98112.41;5093304;28;20447;-60
2022/02/18 09:10:31;;;;;;;11.73;3.22;;;;;;;8.92;74.91;98113.25;5092886;28;20764;-60
2022/02/18 09:12:57;;;;;;;17.35;3.30;;;;;;;8.95;74.79;98122.69;5092671;28;20484;-61
2022/02/18 09:15:24;;;;;;;17.27;4.35;;;;;;;8.92;74.51;98109.78;5093039;28;20047;-60
2022/02/18 09:17:54;;;;;;;16.55;3.22;;;;;;;8.88;74.77;98101.31;5093480;28;20142;-60
2022/02/18 09:20:21;;;;;;;15.45;3.78;;;;;;;8.84;74.64;98100.75;5093021;28;20051;-60
2022/02/18 09:22:48;;;;;;;16.92;3.83;;;;;;;8.78;74.96;98093.31;5092880;28;20485;-61
2022/02/18 09:25:14;;;;;;;14.15;3.78;;;;;;;8.73;74.95;98088.44;5093184;28;20140;-63
2022/02/18 09:27:42;;;;;;;21.98;4.80;;;;;;;8.67;75.33;98096.75;5092874;28;20047;-62
2022/02/18 09:30:10;;;;;;;13.57;3.30;;;;;;;8.64;75.61;98078.66;5092368;28;20097;-59
2022/02/18 09:32:38;;;;;;;10.25;3.10;;;;;;;8.61;75.69;98068.41;5092876;28;20078;-60
2022/02/18 09:35:09;;;;;;;23.77;4.63;;;;;;;8.59;76.19;98070.28;5091691;28;20082;-62
2022/02/18 09:37:41;;;;;;;16.05;3.90;;;;;;;8.57;76.55;98062.53;5092699;28;20051;-59
2022/02/18 09:40:09;;;;;;;16.95;4.32;;;;;;;8.55;77.02;98063.59;5091003;28;20622;-60
2022/02/18 09:42:40;;;;;;;17.85;4.53;;;;;;;8.53;76.87;98050.63;5090548;28;20495;-59
2022/02/18 09:45:07;;;;;;;21.42;4.72;;;;;;;8.54;77.20;98035.72;5091334;28;20052;-61
2022/02/18 09:47:34;;;;;;;13.70;4.60;;;;;;;8.54;77.30;98031.31;5092307;28;20140;-59
2022/02/18 09:50:01;;;;;;;21.23;4.78;;;;;;;8.53;77.75;98005.19;5091716;28;20101;-59
2022/02/18 09:52:28;;;;;;;19.27;4.65;;;;;;;8.54;77.96;97999.84;5090866;28;20051;-60
2022/02/18 09:54:54;;;;;;;19.17;4.60;;;;;;;8.53;78.10;98006.03;5092360;28;20109;-60
2022/02/18 09:57:25;;;;;;;20.88;4.70;;;;;;;8.56;78.28;98004.97;5092290;28;20048;-60
2022/02/18 09:59:53;;;;;;;12.60;4.60;;;;;;;8.57;78.58;97990.91;5091947;28;20094;-60
2022/02/18 10:02:20;;;;;;;13.27;4.47;;;;;;;8.59;79.05;97996.84;5090764;28;20185;-61
2022/02/18 10:04:52;;;;;;;14.43;4.57;;;;;;;8.63;78.87;97989.59;5090863;28;20403;-59
2022/02/18 10:07:18;;;;;;;16.15;4.03;;;;;;;8.66;79.00;97976.22;5092140;28;20052;-60
2022/02/18 10:09:47;;;;;;;15.85;4.78;;;;;;;8.70;78.97;97959.28;5091420;28;20059;-61
2022/02/18 10:12:14;;;;;;;15.73;4.60;;;;;;;8.75;79.00;97948.44;5090473;28;20484;-60
2022/02/18 10:14:59;;;;;;;14.98;4.72;;;;;;;8.73;79.74;97959.06;5091791;28;20044;-63
2022/02/18 10:17:45;;;;;;;12.82;5.22;;;;;;;8.79;79.55;97929.69;5091982;28;20458;-60
2022/02/18 10:20:16;;;;;;;17.65;4.90;;;;;;;8.85;79.23;97938.88;5090095;28;20098;-61
2022/02/18 10:22:56;;;;;;;19.80;5.05;;;;;;;8.85;79.36;97913.50;5090712;28;20051;-60
2022/02/18 10:25:25;;;;;;;20.90;5.53;;;;;;;8.90;79.40;97920.97;5091856;28;20048;-60
2022/02/18 10:27:53;;;;;;;16.60;5.10;;;;;;;8.93;79.22;97905.00;5091518;28;20048;-60
2022/02/18 10:30:25;;;;;;;18.30;4.70;;;;;;;8.96;79.47;97915.25;5090118;28;20066;-62
2022/02/18 10:32:52;;;;;;;15.82;4.65;;;;;;;9.01;79.26;97908.81;5090436;28;20540;-60
2022/02/18 10:35:28;;;;;;;15.82;4.63;;;;;;;9.05;79.37;97899.72;5091679;28;20662;-63
2022/02/18 10:37:55;;;;;;;14.45;4.07;;;;;;;9.08;79.44;97886.38;5091102;28;20450;-60
2022/02/18 10:40:22;;;;;;;13.85;4.15;;;;;;;9.13;79.51;97894.69;5091344;28;20561;-61
2022/02/18 10:42:51;;;;;;;19.67;4.95;;;;;;;9.15;79.63;97892.75;5090741;28;20389;-60
2022/02/18 10:45:23;;;;;;;15.40;5.18;;;;;;;9.20;80.26;97874.03;5089385;28;20093;-60
2022/02/18 10:48:06;;;;;;;10.88;4.20;;;;;;;9.24;80.32;97870.19;5091290;28;20075;-60
2022/02/18 10:50:33;;;;;;;14.32;4.18;;;;;;;9.32;79.95;97866.94;5090026;28;20048;-61
2022/02/18 10:53:09;;;;;;;16.40;4.30;;;;;;;9.34;80.28;97844.00;5090155;28;20040;-62
2022/02/18 10:55:58;;;;;;;15.93;4.88;;;;;;;9.39;80.85;97844.47;5091367;28;20047;-60
2022/02/18 10:58:30;;;;;;;11.32;3.78;;;;;;;9.45;80.77;97843.94;5089532;28;20048;-60
2022/02/18 11:01:14;;;;;;;15.52;4.47;;;;;;;9.48;81.38;97825.31;5091032;28;20089;-60
2022/02/18 11:03:44;;;;;;;18.10;4.60;;;;;;;9.56;81.16;97834.31;5089109;28;20097;-60
2022/02/18 11:06:18;;;;;;;12.15;4.15;;;;;;;9.62;80.92;97810.19;5090914;28;20093;-60
2022/02/18 11:08:57;;;;;;;11.77;4.10;;;;;;;9.69;81.05;97798.19;5090906;28;20051;-60
2022/02/18 11:11:30;;;;;;;14.05;3.90;;;;;;;9.76;81.27;97794.06;5090778;28;20488;-60
2022/02/18 11:13:59;;;;;;;12.20;4.28;;;;;;;9.85;81.05;97789.00;5089210;28;20079;-60
2022/02/18 11:16:28;;;;;;;18.27;4.80;;;;;;;9.89;81.28;97772.84;5089683;28;20048;-60
2022/02/18 11:18:55;;;;;;;10.07;4.00;;;;;;;9.97;81.30;97766.06;5089509;28;20047;-62
2022/02/18 11:21:23;;;;;;;14.63;4.57;;;;;;;10.04;81.23;97748.81;5089278;28;20051;-60
2022/02/18 11:23:51;;;;;;;16.58;4.75;;;;;;;10.09;81.50;97743.97;5088825;28;20897;-61
2022/02/18 11:26:19;;;;;;;10.23;4.22;;;;;;;10.14;81.58;97725.19;5090781;28;20049;-60
2022/02/18 11:28:48;;;;;;;10.98;3.58;;;;;;;10.23;81.37;97713.00;5090587;28;20570;-60
2022/02/18 11:31:21;;;;;;;10.48;3.80;;;;;;;10.26;81.59;97705.69;5090289;28;20048;-62
2022/02/18 11:34:07;;;;;;;9.52;3.60;;;;;;;10.31;81.79;97697.38;5090703;28;20051;-60
2022/02/18 11:37:10;;;;;;;6.22;3.00;;;;;;;10.38;81.79;97698.50;5091075;28;20113;-60
2022/02/18 11:39:40;;;;;;;7.93;3.40;;;;;;;10.50;81.24;97680.81;5086958;28;20052;-60